Time;durP1;ratioP1;P1;durP2;ratioP2;P2;SDS_P1;SDS_P2;PMS_P1;PMS_P2;Temp;Humidity;BMP_temperature;BMP_pressure;BME280_temperature;BME280_humidity;BME280_pressure;Samples;Min_cycle;Max_cycle;Signal;HPM_P1;HPM_P2
2021/12/13 00:00:22;;;;;;;;;;;;;;;;;;2098851;28;19925;-58
2021/12/13 00:01:22;;;;;;;;;;;;;;;;;;2098676;28;19928;-58
2021/12/13 00:02:24;;;;;;;;;;;;;;;;;;2099720;28;19925;-58
2021/12/13 00:03:26;;;;;;;;;;;;;;;;;;2098714;28;20007;-58
2021/12/13 00:04:26;;;;;;;;;;;;;;;;;;2098276;28;19926;-58
2021/12/13 00:05:27;;;;;;;;;;;;;;;;;;2098980;28;20408;-58
2021/12/13 00:06:28;;;;;;;;;;;;;;;;;;2098757;28;19928;-58
2021/12/13 00:07:29;;;;;;;;;;;;;;;;;;2098091;28;19932;-58
2021/12/13 00:08:30;;;;;;;;;;;;;;;;;;2100104;28;19924;-58
2021/12/13 00:09:31;;;;;;;;;;;;;;;;;;2098778;28;20443;-58
2021/12/13 00:10:31;;;;;;;;;;;;;;;;;;2098083;28;19925;-58
2021/12/13 00:11:32;;;;;;;;;;;;;;;;;;2100863;28;19931;-58
2021/12/13 00:12:34;;;;;;;;;;;;;;;;;;2106186;28;20278;-58
2021/12/13 00:13:35;;;;;;;;;;;;;;;;;;2103407;28;19924;-59
2021/12/13 00:14:35;;;;;;;;;;;;;;;;;;2100588;28;20010;-58
2021/12/13 00:15:36;;;;;;;;;;;;;;;;;;2106608;28;19924;-58
2021/12/13 00:16:37;;;;;;;;;;;;;;;;;;2102255;28;19931;-57
2021/12/13 00:17:38;;;;;;;;;;;;;;;;;;2099310;28;19925;-58
2021/12/13 00:18:39;;;;;;;;;;;;;;;;;;2098673;28;20026;-58
2021/12/13 00:19:39;;;;;;;;;;;;;;;;;;2097675;28;19925;-58
2021/12/13 00:20:41;;;;;;;;;;;;;;;;;;2099411;28;19932;-58
2021/12/13 00:21:43;;;;;;;;;;;;;;;;;;2098580;28;19924;-58
2021/12/13 00:22:44;;;;;;;;;;;;;;;;;;2098708;28;19935;-58
2021/12/13 00:23:45;;;;;;;;;;;;;;;;;;2099278;28;20019;-58
2021/12/13 00:24:45;;;;;;;;;;;;;;;;;;2098641;28;20407;-59
2021/12/13 00:25:46;;;;;;;;;;;;;;;;;;2098585;28;19928;-58
2021/12/13 00:26:47;;;;;;;;;;;;;;;;;;2098307;28;20377;-58
2021/12/13 00:27:48;;;;;;;;;;;;;;;;;;2098442;28;19951;-58
2021/12/13 00:28:49;;;;;;;;;;;;;;;;;;2098534;28;19928;-58
2021/12/13 00:29:49;;;;;;;;;;;;;;;;;;2097373;28;20378;-58
2021/12/13 00:30:50;;;;;;;;;;;;;;;;;;2098463;28;19925;-58
2021/12/13 00:31:51;;;;;;;;;;;;;;;;;;2098496;28;19985;-58
2021/12/13 00:32:52;;;;;;;;;;;;;;;;;;2106276;28;19928;-58
2021/12/13 00:33:53;;;;;;;;;;;;;;;;;;2106832;28;19935;-58
2021/12/13 00:34:54;;;;;;;;;;;;;;;;;;2100565;28;20003;-58
2021/12/13 00:35:54;;;;;;;;;;;;;;;;;;2098469;28;19931;-58
2021/12/13 00:36:55;;;;;;;;;;;;;;;;;;2098518;28;19925;-58
2021/12/13 00:37:57;;;;;;;;;;;;;;;;;;2097956;28;20331;-58
2021/12/13 00:38:58;;;;;;;;;;;;;;;;;;2106683;28;19931;-58
2021/12/13 00:39:59;;;;;;;;;;;;;;;;;;2106257;28;20382;-58
2021/12/13 00:41:00;;;;;;;;;;;;;;;;;;2098615;28;19924;-58
2021/12/13 00:42:01;;;;;;;;;;;;;;;;;;2098359;28;20393;-58
2021/12/13 00:43:01;;;;;;;;;;;;;;;;;;2097801;28;19925;-58
2021/12/13 00:44:02;;;;;;;;;;;;;;;;;;2099799;28;19929;-58
2021/12/13 00:45:05;;;;;;;;;;;;;;;;;;2102508;28;19969;-58
2021/12/13 00:46:05;;;;;;;;;;;;;;;;;;2104719;28;20003;-58
2021/12/13 00:47:06;;;;;;;;;;;;;;;;;;2100666;28;20001;-58
2021/12/13 00:48:07;;;;;;;;;;;;;;;;;;2106711;28;19925;-58
2021/12/13 00:49:08;;;;;;;;;;;;;;;;;;2104169;28;19924;-59
2021/12/13 00:50:09;;;;;;;;;;;;;;;;;;2098802;28;19924;-58
2021/12/13 00:51:10;;;;;;;;;;;;;;;;;;2098446;28;19935;-58
2021/12/13 00:52:11;;;;;;;;;;;;;;;;;;2097483;28;19928;-58
2021/12/13 00:53:11;;;;;;;;;;;;;;;;;;2099011;28;19931;-58
2021/12/13 00:54:12;;;;;;;;;;;;;;;;;;2098385;28;19935;-58
2021/12/13 00:55:13;;;;;;;;;;;;;;;;;;2097444;28;19974;-58
2021/12/13 00:56:14;;;;;;;;;;;;;;;;;;2099111;28;20388;-59
2021/12/13 00:57:14;;;;;;;;;;;;;;;;;;2098308;28;19973;-58
2021/12/13 00:58:15;;;;;;;;;;;;;;;;;;2097195;28;19986;-58
2021/12/13 00:59:16;;;;;;;;;;;;;;;;;;2099115;28;19925;-58
2021/12/13 01:00:17;;;;;;;;;;;;;;;;;;2098385;28;19924;-58
2021/12/13 01:01:18;;;;;;;;;;;;;;;;;;2097453;28;19974;-58
2021/12/13 01:02:19;;;;;;;;;;;;;;;;;;2098946;28;20019;-58
2021/12/13 01:03:20;;;;;;;;;;;;;;;;;;2098431;28;19932;-58
2021/12/13 01:04:21;;;;;;;;;;;;;;;;;;2097549;28;19925;-58
2021/12/13 01:05:21;;;;;;;;;;;;;;;;;;2106678;28;19973;-59
2021/12/13 01:06:22;;;;;;;;;;;;;;;;;;2106706;28;19924;-58
2021/12/13 01:07:23;;;;;;;;;;;;;;;;;;2097746;28;20542;-58
2021/12/13 01:08:24;;;;;;;;;;;;;;;;;;2098286;28;20388;-58
2021/12/13 01:09:24;;;;;;;;;;;;;;;;;;2097780;28;19924;-59
2021/12/13 01:10:25;;;;;;;;;;;;;;;;;;2098423;28;19932;-58
2021/12/13 01:11:26;;;;;;;;;;;;;;;;;;2098205;28;19925;-59
2021/12/13 01:12:27;;;;;;;;;;;;;;;;;;2097651;28;19924;-59
2021/12/13 01:13:28;;;;;;;;;;;;;;;;;;2100719;28;20008;-59
2021/12/13 01:14:32;;;;;;;;;;;;;;;;;;2106605;28;19924;-59
2021/12/13 01:15:37;;;;;;;;;;;;;;;;;;2104111;28;20176;-59
2021/12/13 01:16:51;;;;;;;;;;;;;;;;;;2097834;28;20464;-58
2021/12/13 01:17:57;;;;;;;;;;;;;;;;;;2098136;28;19925;-59
2021/12/13 01:19:02;;;;;;;;;;;;;;;;;;2098080;28;20380;-58
2021/12/13 01:20:04;;;;;;;;;;;;;;;;;;2097546;28;20015;-58
2021/12/13 01:21:13;;;;;;;;;;;;;;;;;;2098150;28;20296;-59
2021/12/13 01:22:33;;;;;;;;;;;;;;;;;;2097970;28;19947;-58
2021/12/13 01:23:43;;;;;;;;;;;;;;;;;;2106579;28;19925;-59
2021/12/13 01:25:14;;;;;;;;;;;;;;;;;;2101214;28;20468;-59
2021/12/13 01:26:35;;;;;;;;;;;;;;;;;;2089726;28;20035;-58
2021/12/13 01:27:35;;;;;;;;;;;;;;;;;;2092432;28;20011;-59
2021/12/13 01:28:37;;;;;;;;;;;;;;;;;;2098769;28;20274;-59
2021/12/13 01:29:38;;;;;;;;;;;;;;;;;;2098127;28;20043;-59
2021/12/13 01:30:39;;;;;;;;;;;;;;;;;;2097250;28;20381;-58
2021/12/13 01:31:39;;;;;;;;;;;;;;;;;;2103386;28;19931;-59
2021/12/13 01:32:40;;;;;;;;;;;;;;;;;;2106640;28;20280;-59
2021/12/13 01:33:44;;;;;;;;;;;;;;;;;;2102763;28;20349;-58
2021/12/13 01:34:44;;;;;;;;;;;;;;;;;;2097934;28;19967;-59
2021/12/13 01:35:45;;;;;;;;;;;;;;;;;;2098128;28;19925;-59
2021/12/13 01:36:50;;;;;;;;;;;;;;;;;;2099198;28;19988;-59
2021/12/13 01:37:53;;;;;;;;;;;;;;;;;;2097175;28;19971;-59
2021/12/13 01:38:53;;;;;;;;;;;;;;;;;;2098038;28;19928;-59
2021/12/13 01:39:56;;;;;;;;;;;;;;;;;;2097742;28;19924;-59
2021/12/13 01:40:56;;;;;;;;;;;;;;;;;;2098257;28;20007;-59
2021/12/13 01:41:59;;;;;;;;;;;;;;;;;;2097941;28;19924;-59
2021/12/13 01:42:59;;;;;;;;;;;;;;;;;;2097946;28;20007;-59
2021/12/13 01:44:00;;;;;;;;;;;;;;;;;;2098041;28;19931;-60
2021/12/13 01:45:01;;;;;;;;;;;;;;;;;;2100892;28;20403;-60
2021/12/13 01:46:02;;;;;;;;;;;;;;;;;;2098449;28;20282;-59
2021/12/13 01:47:02;;;;;;;;;;;;;;;;;;2097972;28;19957;-60
2021/12/13 01:48:03;;;;;;;;;;;;;;;;;;2097719;28;19924;-59
2021/12/13 01:49:04;;;;;;;;;;;;;;;;;;2099318;28;20296;-60
2021/12/13 01:50:05;;;;;;;;;;;;;;;;;;2098131;28;19932;-60
2021/12/13 01:51:07;;;;;;;;;;;;;;;;;;2097538;28;20324;-59
2021/12/13 01:52:08;;;;;;;;;;;;;;;;;;2099515;28;19947;-59
2021/12/13 01:53:09;;;;;;;;;;;;;;;;;;2098075;28;19931;-60
2021/12/13 01:54:10;;;;;;;;;;;;;;;;;;2097408;28;19928;-59
2021/12/13 01:55:11;;;;;;;;;;;;;;;;;;2098556;28;19931;-59
2021/12/13 01:56:33;;;;;;;;;;;;;;;;;;2098022;28;20019;-59
2021/12/13 01:57:40;;;;;;;;;;;;;;;;;;2097764;28;19928;-59
2021/12/13 01:58:42;;;;;;;;;;;;;;;;;;2097804;28;19924;-59
2021/12/13 01:59:50;;;;;;;;;;;;;;;;;;2097571;28;19928;-59
2021/12/13 02:01:09;;;;;;;;;;;;;;;;;;2098200;28;20010;-59
2021/12/13 02:02:10;;;;;;;;;;;;;;;;;;2097894;28;20397;-59
2021/12/13 02:03:11;;;;;;;;;;;;;;;;;;2097774;28;19924;-59
2021/12/13 02:04:14;;;;;;;;;;;;;;;;;;2102112;28;19924;-59
2021/12/13 02:05:14;;;;;;;;;;;;;;;;;;2106247;28;20011;-59
2021/12/13 02:06:15;;;;;;;;;;;;;;;;;;2101190;28;19939;-59
2021/12/13 02:07:16;;;;;;;;;;;;;;;;;;2098579;28;20345;-59
2021/12/13 02:08:17;;;;;;;;;;;;;;;;;;2097738;28;20483;-59
2021/12/13 02:09:18;;;;;;;;;;;;;;;;;;2096784;28;19977;-60
2021/12/13 02:10:18;;;;;;;;;;;;;;;;;;2098610;28;19929;-59
2021/12/13 02:11:19;;;;;;;;;;;;;;;;;;2097951;28;19925;-59
2021/12/13 02:12:20;;;;;;;;;;;;;;;;;;2097689;28;19928;-59
2021/12/13 02:13:22;;;;;;;;;;;;;;;;;;2098066;28;19982;-59
2021/12/13 02:14:24;;;;;;;;;;;;;;;;;;2097835;28;19928;-59
2021/12/13 02:17:03;;;;;;;;;;;;;;;;;;2089721;28;20162;-59
2021/12/13 02:18:04;;;;;;;;;;;;;;;;;;2092230;28;19931;-59
2021/12/13 02:19:05;;;;;;;;;;;;;;;;;;2102775;28;19924;-59
2021/12/13 02:20:05;;;;;;;;;;;;;;;;;;2106297;28;20289;-59
2021/12/13 02:21:07;;;;;;;;;;;;;;;;;;2100830;28;20338;-59
2021/12/13 02:22:08;;;;;;;;;;;;;;;;;;2098639;28;20011;-59
2021/12/13 02:23:09;;;;;;;;;;;;;;;;;;2097848;28;19931;-59
2021/12/13 02:24:09;;;;;;;;;;;;;;;;;;2097876;28;20285;-59
2021/12/13 02:25:10;;;;;;;;;;;;;;;;;;2104178;28;20266;-59
2021/12/13 02:26:11;;;;;;;;;;;;;;;;;;2106203;28;19931;-59
2021/12/13 02:27:12;;;;;;;;;;;;;;;;;;2101429;28;19977;-59
2021/12/13 02:28:13;;;;;;;;;;;;;;;;;;2097568;28;19932;-59
2021/12/13 02:29:14;;;;;;;;;;;;;;;;;;2097747;28;19924;-59
2021/12/13 02:30:15;;;;;;;;;;;;;;;;;;2097175;28;20426;-59
2021/12/13 02:31:15;;;;;;;;;;;;;;;;;;2098203;28;19925;-59
2021/12/13 02:32:16;;;;;;;;;;;;;;;;;;2097653;28;19928;-59
2021/12/13 02:33:17;;;;;;;;;;;;;;;;;;2097800;28;19925;-59
2021/12/13 02:34:18;;;;;;;;;;;;;;;;;;2089421;28;20385;-59
2021/12/13 02:35:18;;;;;;;;;;;;;;;;;;2089627;28;19932;-59
2021/12/13 02:36:19;;;;;;;;;;;;;;;;;;2096661;28;19932;-59
2021/12/13 02:37:20;;;;;;;;;;;;;;;;;;2097789;28;20018;-59
2021/12/13 02:38:21;;;;;;;;;;;;;;;;;;2097667;28;19924;-59
2021/12/13 02:39:22;;;;;;;;;;;;;;;;;;2097844;28;20015;-59
2021/12/13 02:40:23;;;;;;;;;;;;;;;;;;2106010;28;19928;-59
2021/12/13 02:41:24;;;;;;;;;;;;;;;;;;2105149;28;19924;-60
2021/12/13 02:42:25;;;;;;;;;;;;;;;;;;2097934;28;19974;-58
2021/12/13 02:43:26;;;;;;;;;;;;;;;;;;2097676;28;19929;-59
2021/12/13 02:44:26;;;;;;;;;;;;;;;;;;2096060;28;19924;-59
2021/12/13 02:45:27;;;;;;;;;;;;;;;;;;2099349;28;20399;-59
2021/12/13 02:46:28;;;;;;;;;;;;;;;;;;2097799;28;19925;-59
2021/12/13 02:47:29;;;;;;;;;;;;;;;;;;2096988;28;20392;-59
2021/12/13 02:48:30;;;;;;;;;;;;;;;;;;2101181;28;19973;-58
2021/12/13 02:49:31;;;;;;;;;;;;;;;;;;2106086;28;19924;-59
2021/12/13 02:50:31;;;;;;;;;;;;;;;;;;2103338;28;20339;-59
2021/12/13 02:51:32;;;;;;;;;;;;;;;;;;2098153;28;19924;-59
2021/12/13 02:52:33;;;;;;;;;;;;;;;;;;2097527;28;19947;-59
2021/12/13 02:53:34;;;;;;;;;;;;;;;;;;2096846;28;19944;-58
2021/12/13 02:54:36;;;;;;;;;;;;;;;;;;2098389;28;20288;-59
2021/12/13 02:55:37;;;;;;;;;;;;;;;;;;2097737;28;19975;-59
2021/12/13 02:56:38;;;;;;;;;;;;;;;;;;2096673;28;19928;-59
2021/12/13 02:57:39;;;;;;;;;;;;;;;;;;2102566;28;19931;-59
2021/12/13 02:58:39;;;;;;;;;;;;;;;;;;2105878;28;20433;-59
2021/12/13 02:59:40;;;;;;;;;;;;;;;;;;2101588;28;19932;-59
2021/12/13 03:00:41;;;;;;;;;;;;;;;;;;2098560;28;19931;-59
2021/12/13 03:01:42;;;;;;;;;;;;;;;;;;2097580;28;20397;-59
2021/12/13 03:02:43;;;;;;;;;;;;;;;;;;2096654;28;19929;-59
2021/12/13 03:03:44;;;;;;;;;;;;;;;;;;2098367;28;19928;-59
2021/12/13 03:04:44;;;;;;;;;;;;;;;;;;2097565;28;19932;-59
2021/12/13 03:05:45;;;;;;;;;;;;;;;;;;2098365;28;19924;-59
2021/12/13 03:06:46;;;;;;;;;;;;;;;;;;2097667;28;19928;-59
2021/12/13 03:07:47;;;;;;;;;;;;;;;;;;2097462;28;19947;-58
2021/12/13 03:08:48;;;;;;;;;;;;;;;;;;2098502;28;19924;-59
2021/12/13 03:09:51;;;;;;;;;;;;;;;;;;2097508;28;20014;-59
2021/12/13 03:10:52;;;;;;;;;;;;;;;;;;2097676;28;20057;-59
2021/12/13 03:11:52;;;;;;;;;;;;;;;;;;2097742;28;20336;-59
2021/12/13 03:12:53;;;;;;;;;;;;;;;;;;2107465;28;19928;-59
2021/12/13 03:13:54;;;;;;;;;;;;;;;;;;2107475;28;19955;-59
2021/12/13 03:14:56;;;;;;;;;;;;;;;;;;2100480;28;19969;-59
2021/12/13 03:15:57;;;;;;;;;;;;;;;;;;2098983;28;19959;-59
2021/12/13 03:16:57;;;;;;;;;;;;;;;;;;2098608;28;19932;-58
2021/12/13 03:17:58;;;;;;;;;;;;;;;;;;2097891;28;19977;-58
2021/12/13 03:18:59;;;;;;;;;;;;;;;;;;2099000;28;20377;-59
2021/12/13 03:20:00;;;;;;;;;;;;;;;;;;2098392;28;19925;-59
2021/12/13 03:21:00;;;;;;;;;;;;;;;;;;2099333;28;19931;-59
2021/12/13 03:22:01;;;;;;;;;;;;;;;;;;2099023;28;19924;-59
2021/12/13 03:23:02;;;;;;;;;;;;;;;;;;2098565;28;20293;-58
2021/12/13 03:24:03;;;;;;;;;;;;;;;;;;2100282;28;20341;-59
2021/12/13 03:25:04;;;;;;;;;;;;;;;;;;2098948;28;19924;-59
2021/12/13 03:26:05;;;;;;;;;;;;;;;;;;2098513;28;19924;-59
2021/12/13 03:27:06;;;;;;;;;;;;;;;;;;2100434;28;20258;-59
2021/12/13 03:28:07;;;;;;;;;;;;;;;;;;2098947;28;20019;-59
2021/12/13 03:29:08;;;;;;;;;;;;;;;;;;2098167;28;20377;-58
2021/12/13 03:30:08;;;;;;;;;;;;;;;;;;2100684;28;19924;-59
2021/12/13 03:31:09;;;;;;;;;;;;;;;;;;2099003;28;19989;-58
2021/12/13 03:32:10;;;;;;;;;;;;;;;;;;2097876;28;19931;-59
2021/12/13 03:33:11;;;;;;;;;;;;;;;;;;2099529;28;19960;-59
2021/12/13 03:34:12;;;;;;;;;;;;;;;;;;2099037;28;19924;-58
2021/12/13 03:35:12;;;;;;;;;;;;;;;;;;2098001;28;20395;-59
2021/12/13 03:36:13;;;;;;;;;;;;;;;;;;2099574;28;19929;-59
2021/12/13 03:37:14;;;;;;;;;;;;;;;;;;2098848;28;19924;-59
2021/12/13 03:38:15;;;;;;;;;;;;;;;;;;2097812;28;19925;-58
2021/12/13 03:39:16;;;;;;;;;;;;;;;;;;2099497;28;19924;-59
2021/12/13 03:40:16;;;;;;;;;;;;;;;;;;2098859;28;19931;-59
2021/12/13 03:41:17;;;;;;;;;;;;;;;;;;2097694;28;19938;-58
2021/12/13 03:42:18;;;;;;;;;;;;;;;;;;2105225;28;19924;-59
2021/12/13 03:43:19;;;;;;;;;;;;;;;;;;2107279;28;20361;-58
2021/12/13 03:44:20;;;;;;;;;;;;;;;;;;2102629;28;19985;-58
2021/12/13 03:45:20;;;;;;;;;;;;;;;;;;2097914;28;19931;-59
2021/12/13 03:46:21;;;;;;;;;;;;;;;;;;2098881;28;19925;-58
2021/12/13 03:47:22;;;;;;;;;;;;;;;;;;2097588;28;19947;-59
2021/12/13 03:48:23;;;;;;;;;;;;;;;;;;2106456;28;19924;-59
2021/12/13 03:49:24;;;;;;;;;;;;;;;;;;2107354;28;19924;-58
2021/12/13 03:50:25;;;;;;;;;;;;;;;;;;2101327;28;19932;-59
2021/12/13 03:51:26;;;;;;;;;;;;;;;;;;2098657;28;19928;-58
2021/12/13 03:52:26;;;;;;;;;;;;;;;;;;2098874;28;19950;-58
2021/12/13 03:53:27;;;;;;;;;;;;;;;;;;2098526;28;19928;-58
2021/12/13 03:54:28;;;;;;;;;;;;;;;;;;2098395;28;19924;-58
2021/12/13 03:55:29;;;;;;;;;;;;;;;;;;2098496;28;20031;-58
2021/12/13 03:56:30;;;;;;;;;;;;;;;;;;2099308;28;19969;-59
2021/12/13 03:57:31;;;;;;;;;;;;;;;;;;2107073;28;19978;-59
2021/12/13 03:58:32;;;;;;;;;;;;;;;;;;2106233;28;19924;-59
2021/12/13 03:59:34;;;;;;;;;;;;;;;;;;2099057;28;19971;-58
2021/12/13 04:00:35;;;;;;;;;;;;;;;;;;2098742;28;20452;-58
2021/12/13 04:01:37;;;;;;;;;;;;;;;;;;2098321;28;19982;-59
2021/12/13 04:02:38;;;;;;;;;;;;;;;;;;2100177;28;19964;-59
2021/12/13 04:03:38;;;;;;;;;;;;;;;;;;2098740;28;20393;-59
2021/12/13 04:04:39;;;;;;;;;;;;;;;;;;2098005;28;19925;-59
2021/12/13 04:05:40;;;;;;;;;;;;;;;;;;2099189;28;19924;-58
2021/12/13 04:06:41;;;;;;;;;;;;;;;;;;2098718;28;19934;-58
2021/12/13 04:07:42;;;;;;;;;;;;;;;;;;2097751;28;20182;-58
2021/12/13 04:08:42;;;;;;;;;;;;;;;;;;2102243;28;19930;-58
2021/12/13 04:09:43;;;;;;;;;;;;;;;;;;2107125;28;19978;-59
2021/12/13 04:10:44;;;;;;;;;;;;;;;;;;2103051;28;20015;-59
2021/12/13 04:11:45;;;;;;;;;;;;;;;;;;2105373;28;19924;-59
2021/12/13 04:12:49;;;;;;;;;;;;;;;;;;2107075;28;20039;-59
2021/12/13 04:13:51;;;;;;;;;;;;;;;;;;2100407;28;20345;-58
2021/12/13 04:14:56;;;;;;;;;;;;;;;;;;2098702;28;20023;-59
2021/12/13 04:16:02;;;;;;;;;;;;;;;;;;2098603;28;20004;-59
2021/12/13 04:17:07;;;;;;;;;;;;;;;;;;2097848;28;19928;-58
2021/12/13 04:18:15;;;;;;;;;;;;;;;;;;2098801;28;20041;-58
2021/12/13 04:19:15;;;;;;;;;;;;;;;;;;2097972;28;19928;-58
2021/12/13 04:20:16;;;;;;;;;;;;;;;;;;2101579;28;19924;-58
2021/12/13 04:21:17;;;;;;;;;;;;;;;;;;2106995;28;19924;-59
2021/12/13 04:22:18;;;;;;;;;;;;;;;;;;2102683;28;19932;-59
2021/12/13 04:23:19;;;;;;;;;;;;;;;;;;2099298;28;20150;-58
2021/12/13 04:24:19;;;;;;;;;;;;;;;;;;2098646;28;19932;-59
2021/12/13 04:25:20;;;;;;;;;;;;;;;;;;2097595;28;20406;-58
2021/12/13 04:26:21;;;;;;;;;;;;;;;;;;2102985;28;19924;-59
2021/12/13 04:27:22;;;;;;;;;;;;;;;;;;2106980;28;19924;-58
2021/12/13 04:28:22;;;;;;;;;;;;;;;;;;2103010;28;20327;-58
2021/12/13 04:29:25;;;;;;;;;;;;;;;;;;2099239;28;20383;-59
2021/12/13 04:30:26;;;;;;;;;;;;;;;;;;2098655;28;19924;-58
2021/12/13 04:31:27;;;;;;;;;;;;;;;;;;2097409;28;19931;-58
2021/12/13 04:32:28;;;;;;;;;;;;;;;;;;2099233;28;19935;-59
2021/12/13 04:33:29;;;;;;;;;;;;;;;;;;2098448;28;19925;-59
2021/12/13 04:34:29;;;;;;;;;;;;;;;;;;2098386;28;20077;-59
2021/12/13 04:35:45;;;;;;;;;;;;;;;;;;2090068;28;19972;-59
2021/12/13 04:36:46;;;;;;;;;;;;;;;;;;2090170;28;20571;-59
2021/12/13 04:37:47;;;;;;;;;;;;;;;;;;2098024;28;19950;-59
2021/12/13 04:38:48;;;;;;;;;;;;;;;;;;2098416;28;19970;-59
2021/12/13 04:39:49;;;;;;;;;;;;;;;;;;2098045;28;20015;-59
2021/12/13 04:40:50;;;;;;;;;;;;;;;;;;2098771;28;19948;-59
2021/12/13 04:41:51;;;;;;;;;;;;;;;;;;2098460;28;19981;-59
2021/12/13 04:42:52;;;;;;;;;;;;;;;;;;2097819;28;20404;-59
2021/12/13 04:43:53;;;;;;;;;;;;;;;;;;2098670;28;20006;-58
2021/12/13 04:44:54;;;;;;;;;;;;;;;;;;2100989;28;19931;-59
2021/12/13 04:45:55;;;;;;;;;;;;;;;;;;2104265;28;20328;-59
2021/12/13 04:46:56;;;;;;;;;;;;;;;;;;2099865;28;19931;-59
2021/12/13 04:47:57;;;;;;;;;;;;;;;;;;2098313;28;19931;-59
2021/12/13 04:48:58;;;;;;;;;;;;;;;;;;2097548;28;20128;-59
2021/12/13 04:49:59;;;;;;;;;;;;;;;;;;2099132;28;19925;-59
2021/12/13 04:51:00;;;;;;;;;;;;;;;;;;2098344;28;19932;-58
2021/12/13 04:52:01;;;;;;;;;;;;;;;;;;2097160;28;19924;-58
2021/12/13 04:53:02;;;;;;;;;;;;;;;;;;2099034;28;19924;-59
2021/12/13 04:54:02;;;;;;;;;;;;;;;;;;2098356;28;19925;-58
2021/12/13 04:55:03;;;;;;;;;;;;;;;;;;2097458;28;19932;-59
2021/12/13 04:56:04;;;;;;;;;;;;;;;;;;2099139;28;20417;-59
2021/12/13 04:57:05;;;;;;;;;;;;;;;;;;2098241;28;19932;-59
2021/12/13 04:58:06;;;;;;;;;;;;;;;;;;2098121;28;19928;-59
2021/12/13 04:59:07;;;;;;;;;;;;;;;;;;2098071;28;19932;-59
2021/12/13 05:00:07;;;;;;;;;;;;;;;;;;2098313;28;19925;-59
2021/12/13 05:01:08;;;;;;;;;;;;;;;;;;2097165;28;19925;-59
2021/12/13 05:02:09;;;;;;;;;;;;;;;;;;2104819;28;20406;-58
2021/12/13 05:03:10;;;;;;;;;;;;;;;;;;2106643;28;20004;-59
2021/12/13 05:04:12;;;;;;;;;;;;;;;;;;2100630;28;19924;-58
2021/12/13 05:05:13;;;;;;;;;;;;;;;;;;2098144;28;19929;-59
2021/12/13 05:06:14;;;;;;;;;;;;;;;;;;2098429;28;19932;-58
2021/12/13 05:07:15;;;;;;;;;;;;;;;;;;2096789;28;20285;-59
2021/12/13 05:08:16;;;;;;;;;;;;;;;;;;2106298;28;20022;-58
2021/12/13 05:09:17;;;;;;;;;;;;;;;;;;2106656;28;20039;-59
2021/12/13 05:10:18;;;;;;;;;;;;;;;;;;2099178;28;19936;-59
2021/12/13 05:11:19;;;;;;;;;;;;;;;;;;2098294;28;19924;-59
2021/12/13 05:12:22;;;;;;;;;;;;;;;;;;2098335;28;19974;-58
2021/12/13 05:13:23;;;;;;;;;;;;;;;;;;2099172;28;20057;-59
2021/12/13 05:14:23;;;;;;;;;;;;;;;;;;2098183;28;19928;-58
2021/12/13 05:15:24;;;;;;;;;;;;;;;;;;2097801;28;19924;-58
2021/12/13 05:16:25;;;;;;;;;;;;;;;;;;2099521;28;19950;-59
2021/12/13 05:17:26;;;;;;;;;;;;;;;;;;2098259;28;20369;-59
2021/12/13 05:18:26;;;;;;;;;;;;;;;;;;2097886;28;20308;-43
2021/12/13 05:19:27;;;;;;;;;;;;;;;;;;2098397;28;19936;-43
2021/12/13 05:20:28;;;;;;;;;;;;;;;;;;2098156;28;19925;-43
2021/12/13 05:21:29;;;;;;;;;;;;;;;;;;2097623;28;19932;-43
2021/12/13 05:22:30;;;;;;;;;;;;;;;;;;2098856;28;19924;-58
2021/12/13 05:23:30;;;;;;;;;;;;;;;;;;2098153;28;20278;-59
2021/12/13 05:24:31;;;;;;;;;;;;;;;;;;2097599;28;19931;-59
2021/12/13 05:25:32;;;;;;;;;;;;;;;;;;2098516;28;19924;-59
2021/12/13 05:26:33;;;;;;;;;;;;;;;;;;2098293;28;19951;-59
2021/12/13 05:27:34;;;;;;;;;;;;;;;;;;2097103;28;20554;-59
2021/12/13 05:28:34;;;;;;;;;;;;;;;;;;2098772;28;20373;-58
2021/12/13 05:29:35;;;;;;;;;;;;;;;;;;2098212;28;19933;-59
2021/12/13 05:30:36;;;;;;;;;;;;;;;;;;2097287;28;19924;-58
2021/12/13 05:31:37;;;;;;;;;;;;;;;;;;2098771;28;19932;-58
2021/12/13 05:32:38;;;;;;;;;;;;;;;;;;2097970;28;19924;-58
2021/12/13 05:33:39;;;;;;;;;;;;;;;;;;2096890;28;19971;-58
2021/12/13 05:34:39;;;;;;;;;;;;;;;;;;2098327;28;19924;-57
2021/12/13 05:35:40;;;;;;;;;;;;;;;;;;2098236;28;20293;-59
2021/12/13 05:36:43;;;;;;;;;;;;;;;;;;2097000;28;19928;-59
2021/12/13 05:37:44;;;;;;;;;;;;;;;;;;2104360;28;20046;-58
2021/12/13 05:38:45;;;;;;;;;;;;;;;;;;2106401;28;20320;-54
2021/12/13 05:39:46;;;;;;;;;;;;;;;;;;2099806;28;20326;-53
2021/12/13 05:40:47;;;;;;;;;;;;;;;;;;2104978;28;19935;-57
2021/12/13 05:41:48;;;;;;;;;;;;;;;;;;2106536;28;19951;-56
2021/12/13 05:42:49;;;;;;;;;;;;;;;;;;2099993;28;19940;-58
2021/12/13 05:43:53;;;;;;;;;;;;;;;;;;2097918;28;19931;-59
2021/12/13 05:44:53;;;;;;;;;;;;;;;;;;2100555;28;19928;-59
2021/12/13 05:45:54;;;;;;;;;;;;;;;;;;2098103;28;19925;-58
2021/12/13 05:46:55;;;;;;;;;;;;;;;;;;2106383;28;19974;-58
2021/12/13 05:47:56;;;;;;;;;;;;;;;;;;2106317;28;19932;-59
2021/12/13 05:48:57;;;;;;;;;;;;;;;;;;2097975;28;19924;-58
2021/12/13 05:49:58;;;;;;;;;;;;;;;;;;2097933;28;19924;-58
2021/12/13 05:50:58;;;;;;;;;;;;;;;;;;2097597;28;19924;-57
2021/12/13 05:51:59;;;;;;;;;;;;;;;;;;2098172;28;19928;-57
2021/12/13 05:53:00;;;;;;;;;;;;;;;;;;2097927;28;19924;-57
2021/12/13 05:54:01;;;;;;;;;;;;;;;;;;2097431;28;19925;-56
2021/12/13 05:55:02;;;;;;;;;;;;;;;;;;2098273;28;20462;-57
2021/12/13 05:56:03;;;;;;;;;;;;;;;;;;2098047;28;20019;-56
2021/12/13 05:57:04;;;;;;;;;;;;;;;;;;2097096;28;20274;-56
2021/12/13 05:58:05;;;;;;;;;;;;;;;;;;2098454;28;20266;-57
2021/12/13 05:59:06;;;;;;;;;;;;;;;;;;2097875;28;20296;-57
2021/12/13 06:00:08;;;;;;;;;;;;;;;;;;2097442;28;20301;-57
2021/12/13 06:01:11;;;;;;;;;;;;;;;;;;2100920;28;20430;-57
2021/12/13 06:02:12;;;;;;;;;;;;;;;;;;2106377;28;19931;-57
2021/12/13 06:03:16;;;;;;;;;;;;;;;;;;2102920;28;19971;-57
2021/12/13 06:04:17;;;;;;;;;;;;;;;;;;2098810;28;20019;-57
2021/12/13 06:05:17;;;;;;;;;;;;;;;;;;2098145;28;19957;-57
2021/12/13 06:06:18;;;;;;;;;;;;;;;;;;2096968;28;19932;-57
2021/12/13 06:07:19;;;;;;;;;;;;;;;;;;2098672;28;20378;-57
2021/12/13 06:08:20;;;;;;;;;;;;;;;;;;2097795;28;20423;-56
2021/12/13 06:09:20;;;;;;;;;;;;;;;;;;2096937;28;19924;-57
2021/12/13 06:10:21;;;;;;;;;;;;;;;;;;2098658;28;19970;-57
2021/12/13 06:11:22;;;;;;;;;;;;;;;;;;2098009;28;19924;-57
2021/12/13 06:12:23;;;;;;;;;;;;;;;;;;2097431;28;19925;-57
2021/12/13 06:13:24;;;;;;;;;;;;;;;;;;2098000;28;19928;-57
2021/12/13 06:14:25;;;;;;;;;;;;;;;;;;2097831;28;19978;-57
2021/12/13 06:15:27;;;;;;;;;;;;;;;;;;2097946;28;19928;-57
2021/12/13 06:16:28;;;;;;;;;;;;;;;;;;2097902;28;19925;-57
2021/12/13 06:17:28;;;;;;;;;;;;;;;;;;2097643;28;19950;-57
2021/12/13 06:18:29;;;;;;;;;;;;;;;;;;2096797;28;20365;-56
2021/12/13 06:19:30;;;;;;;;;;;;;;;;;;2106150;28;19989;-57
2021/12/13 06:20:31;;;;;;;;;;;;;;;;;;2106234;28;20019;-57
2021/12/13 06:21:32;;;;;;;;;;;;;;;;;;2097828;28;19936;-58
2021/12/13 06:22:33;;;;;;;;;;;;;;;;;;2106283;28;19924;-58
2021/12/13 06:23:34;;;;;;;;;;;;;;;;;;2106235;28;20023;-59
2021/12/13 06:24:35;;;;;;;;;;;;;;;;;;2099083;28;19930;-59
2021/12/13 06:25:36;;;;;;;;;;;;;;;;;;2097887;28;20296;-56
2021/12/13 06:26:36;;;;;;;;;;;;;;;;;;2097454;28;20297;-57
2021/12/13 06:27:37;;;;;;;;;;;;;;;;;;2098109;28;19924;-58
2021/12/13 06:28:38;;;;;;;;;;;;;;;;;;2097976;28;19924;-43
2021/12/13 06:29:39;;;;;;;;;;;;;;;;;;2097277;28;19931;-43
2021/12/13 06:30:40;;;;;;;;;;;;;;;;;;2099117;28;19932;-43
2021/12/13 06:31:40;;;;;;;;;;;;;;;;;;2097967;28;19928;-43
2021/12/13 06:32:41;;;;;;;;;;;;;;;;;;2096982;28;19952;-43
2021/12/13 06:33:42;;;;;;;;;;;;;;;;;;2098326;28;20045;-43
2021/12/13 06:34:43;;;;;;;;;;;;;;;;;;2097719;28;19979;-43
2021/12/13 06:35:44;;;;;;;;;;;;;;;;;;2095866;28;19936;-43
2021/12/13 06:36:45;;;;;;;;;;;;;;;;;;2098163;28;20381;-43
2021/12/13 06:37:46;;;;;;;;;;;;;;;;;;2097642;28;19931;-43
2021/12/13 06:38:47;;;;;;;;;;;;;;;;;;2096865;28;19939;-43
2021/12/13 06:39:48;;;;;;;;;;;;;;;;;;2098429;28;20288;-43
2021/12/13 06:40:49;;;;;;;;;;;;;;;;;;2097828;28;19928;-43
2021/12/13 06:41:49;;;;;;;;;;;;;;;;;;2096975;28;20377;-43
2021/12/13 06:42:50;;;;;;;;;;;;;;;;;;2101319;28;20368;-43
2021/12/13 06:43:51;;;;;;;;;;;;;;;;;;2106330;28;20381;-57
2021/12/13 06:44:52;;;;;;;;;;;;;;;;;;2099408;28;20369;-57
2021/12/13 06:45:53;;;;;;;;;;;;;;;;;;2106657;28;19969;-57
2021/12/13 06:46:53;;;;;;;;;;;;;;;;;;2107614;28;19958;-58
2021/12/13 06:47:54;;;;;;;;;;;;;;;;;;2099217;28;20270;-58
2021/12/13 06:48:58;;;;;;;;;;;;;;;;;;2107488;28;19924;-57
2021/12/13 06:49:59;;;;;;;;;;;;;;;;;;2107511;28;20089;-58
2021/12/13 06:51:00;;;;;;;;;;;;;;;;;;2100190;28;19949;-57
2021/12/13 06:52:01;;;;;;;;;;;;;;;;;;2099179;28;19931;-57
2021/12/13 06:53:02;;;;;;;;;;;;;;;;;;2098554;28;19924;-58
2021/12/13 06:54:03;;;;;;;;;;;;;;;;;;2100570;28;19975;-58
2021/12/13 06:55:04;;;;;;;;;;;;;;;;;;2099058;28;19928;-58
2021/12/13 06:56:04;;;;;;;;;;;;;;;;;;2098762;28;19977;-59
2021/12/13 06:57:05;;;;;;;;;;;;;;;;;;2100348;28;19924;-59
2021/12/13 06:58:06;;;;;;;;;;;;;;;;;;2099089;28;19931;-58
2021/12/13 06:59:07;;;;;;;;;;;;;;;;;;2098477;28;19978;-58
2021/12/13 07:00:07;;;;;;;;;;;;;;;;;;2099477;28;19953;-58
2021/12/13 07:01:08;;;;;;;;;;;;;;;;;;2099242;28;19924;-57